createdAt,value
2023-01-04T00:01:47.011Z,105.10
2023-01-04T00:04:15.020Z,110.40
2023-01-04T00:06:43.290Z,100.40
2023-01-04T00:09:11.255Z,110.00
2023-01-04T00:11:39.514Z,104.80
2023-01-04T00:14:07.514Z,112.80
2023-01-04T00:16:35.538Z,107.00
2023-01-04T00:19:03.911Z,116.90
2023-01-04T00:21:32.236Z,114.30
2023-01-04T00:24:01.591Z,108.20
2023-01-04T00:26:32.671Z,108.60
2023-01-04T00:29:04.360Z,100.60
2023-01-04T00:31:33.752Z,111.90
2023-01-04T00:34:04.159Z,109.00
2023-01-04T00:36:33.160Z,96.90
2023-01-04T00:39:10.103Z,95.10
2023-01-04T00:44:28.062Z,94.90
2023-01-04T00:46:56.682Z,95.30
2023-01-04T00:49:25.829Z,109.40
2023-01-04T00:51:54.397Z,90.70
2023-01-04T00:54:23.425Z,100.40
2023-01-04T00:56:52.380Z,71.10
2023-01-04T00:59:22.291Z,88.30
2023-01-04T01:01:51.463Z,69.30
2023-01-04T01:04:22.653Z,61.70
2023-01-04T01:06:51.802Z,57.80
2023-01-04T01:09:23.201Z,56.60
2023-01-04T01:11:53.685Z,64.00
2023-01-04T01:14:24.510Z,66.90
2023-01-04T01:16:57.232Z,66.40
2023-01-04T01:19:28.873Z,71.40
2023-01-04T01:21:58.537Z,83.60
2023-01-04T01:24:27.397Z,79.20
2023-01-04T01:26:56.695Z,77.80
2023-01-04T01:29:25.781Z,70.40
2023-01-04T01:31:54.603Z,83.60
2023-01-04T01:34:22.938Z,68.80
2023-01-04T01:36:51.108Z,91.90
2023-01-04T01:39:19.478Z,67.90
2023-01-04T01:41:47.733Z,68.90
2023-01-04T01:44:46.897Z,74.00
2023-01-04T01:47:19.445Z,77.20
2023-01-04T01:49:51.801Z,71.30
2023-01-04T01:52:27.654Z,68.00
2023-01-04T01:55:00.172Z,68.30
2023-01-04T01:57:34.348Z,68.10
2023-01-04T02:00:10.287Z,61.70
2023-01-04T02:02:52.426Z,63.80
2023-01-04T02:05:22.014Z,56.00
2023-01-04T02:10:19.274Z,62.00
2023-01-04T02:12:49.627Z,54.90
2023-01-04T02:15:17.972Z,58.10
2023-01-04T02:18:04.575Z,56.10
2023-01-04T02:21:18.457Z,55.10
2023-01-04T02:23:58.069Z,58.70
2023-01-04T02:26:48.120Z,52.90
2023-01-04T02:29:18.983Z,54.10
2023-01-04T02:31:55.344Z,58.60
2023-01-04T02:34:26.693Z,57.30
2023-01-04T02:36:54.752Z,55.80
2023-01-04T02:39:40.099Z,50.40
2023-01-04T02:42:45.714Z,56.80
2023-01-04T02:45:17.647Z,60.60
2023-01-04T02:48:04.559Z,58.10
2023-01-04T02:50:53.321Z,56.90
2023-01-04T02:53:26.172Z,58.00
2023-01-04T02:56:35.541Z,52.90
2023-01-04T02:59:06.992Z,53.30
2023-01-04T03:02:21.107Z,50.20
2023-01-04T03:05:19.317Z,54.50
2023-01-04T03:08:08.802Z,59.10
2023-01-04T03:10:46.095Z,59.60
2023-01-04T03:13:40.358Z,57.10
2023-01-04T03:16:16.199Z,53.20
2023-01-04T03:18:48.311Z,57.60
2023-01-04T03:21:19.236Z,49.70
2023-01-04T03:24:08.670Z,54.10
2023-01-04T03:27:01.933Z,48.80
2023-01-04T03:29:48.784Z,47.40
2023-01-04T03:32:46.830Z,53.10
2023-01-04T03:35:25.037Z,55.50
2023-01-04T03:38:32.225Z,54.60
2023-01-04T03:41:38.809Z,52.40
2023-01-04T03:44:31.447Z,48.50
2023-01-04T03:47:37.093Z,49.00
2023-01-04T03:50:24.453Z,44.10
2023-01-04T03:52:54.713Z,42.30
2023-01-04T03:55:24.858Z,47.10
2023-01-04T03:57:53.998Z,39.20
2023-01-04T04:00:22.652Z,40.90
2023-01-04T04:02:51.600Z,45.60
2023-01-04T04:05:41.580Z,42.30
2023-01-04T04:08:28.170Z,39.70
2023-01-04T04:11:23.938Z,45.90
2023-01-04T04:13:51.963Z,41.10
2023-01-04T04:16:20.414Z,45.60
2023-01-04T04:18:48.769Z,47.20
2023-01-04T04:21:16.833Z,40.20
2023-01-04T04:23:44.985Z,35.60
2023-01-04T04:26:13.075Z,38.10
2023-01-04T04:28:41.454Z,31.20
2023-01-04T04:31:09.951Z,31.50
2023-01-04T04:33:38.311Z,25.40
2023-01-04T04:36:07.881Z,20.60
2023-01-04T04:38:36.300Z,22.80
2023-01-04T04:41:31.430Z,19.40
2023-01-04T04:43:59.572Z,19.80
2023-01-04T04:46:27.968Z,18.40
2023-01-04T04:48:56.537Z,17.90
2023-01-04T04:51:24.766Z,18.40
2023-01-04T04:53:52.793Z,18.50
2023-01-04T04:56:21.372Z,17.10
2023-01-04T04:58:50.383Z,18.20
2023-01-04T05:03:47.551Z,20.20
2023-01-04T05:06:16.012Z,16.00
2023-01-04T05:08:44.055Z,18.70
2023-01-04T05:11:13.509Z,16.50
2023-01-04T05:13:41.981Z,18.00
2023-01-04T05:16:10.609Z,27.30
2023-01-04T05:18:38.802Z,27.90
2023-01-04T05:21:07.284Z,28.00
2023-01-04T05:23:35.408Z,31.10
2023-01-04T05:26:03.939Z,31.20
2023-01-04T05:28:31.973Z,34.70
2023-01-04T05:31:00.163Z,34.40
2023-01-04T05:33:32.858Z,32.80
2023-01-04T05:36:03.401Z,26.00
2023-01-04T05:38:31.444Z,28.90
2023-01-04T05:40:59.530Z,31.80
2023-01-04T05:43:27.807Z,29.50
2023-01-04T05:45:57.456Z,30.20
2023-01-04T05:48:25.940Z,30.70
2023-01-04T05:50:54.372Z,30.70
2023-01-04T05:53:22.558Z,28.70
2023-01-04T05:55:50.824Z,38.30
2023-01-04T05:58:18.909Z,34.20
2023-01-04T06:00:47.068Z,30.60
2023-01-04T06:03:15.443Z,33.00
2023-01-04T06:05:43.776Z,30.90
2023-01-04T06:08:11.993Z,29.40
2023-01-04T06:10:39.986Z,27.20
2023-01-04T06:13:08.145Z,27.70
2023-01-04T06:15:42.848Z,43.80
2023-01-04T06:18:13.878Z,42.00
2023-01-04T06:20:43.784Z,29.20
2023-01-04T06:23:12.338Z,27.70
2023-01-04T06:25:40.732Z,29.00
2023-01-04T06:28:08.843Z,30.20
2023-01-04T06:30:37.208Z,45.10
2023-01-04T06:33:05.409Z,40.30
2023-01-04T06:35:33.476Z,29.10
2023-01-04T06:38:01.851Z,25.20
2023-01-04T06:40:30.028Z,25.80
2023-01-04T06:42:58.287Z,26.50
2023-01-04T06:45:26.576Z,27.40
2023-01-04T06:47:54.578Z,27.80
2023-01-04T06:50:22.601Z,26.10
2023-01-04T06:52:50.781Z,24.70
2023-01-04T06:55:19.148Z,24.40
2023-01-04T06:57:47.269Z,29.90
2023-01-04T07:00:15.976Z,26.50
2023-01-04T07:03:14.599Z,27.50
2023-01-04T07:05:32.810Z,23.30
2023-01-04T07:08:07.705Z,26.40
2023-01-04T07:10:36.711Z,28.80
2023-01-04T07:13:04.930Z,27.00
2023-01-04T07:15:39.538Z,23.20
2023-01-04T07:18:10.120Z,26.70
2023-01-04T07:20:39.075Z,24.60
2023-01-04T07:23:08.079Z,23.50
2023-01-04T07:25:36.250Z,24.60
2023-01-04T07:28:04.426Z,24.50
2023-01-04T07:30:32.655Z,30.60
2023-01-04T07:33:01.115Z,25.70
2023-01-04T07:35:29.357Z,28.70
2023-01-04T07:37:58.988Z,30.50
2023-01-04T07:40:28.062Z,25.10
2023-01-04T07:42:58.431Z,27.30
2023-01-04T07:45:27.085Z,25.80
2023-01-04T07:47:55.293Z,24.90
2023-01-04T07:50:23.539Z,26.00
2023-01-04T07:52:51.883Z,29.30
2023-01-04T07:55:20.134Z,28.60
2023-01-04T07:57:48.431Z,25.80
2023-01-04T08:00:17.057Z,24.30
2023-01-04T08:02:45.231Z,23.20
2023-01-04T08:05:13.883Z,27.20
2023-01-04T08:07:42.180Z,28.80
2023-01-04T08:10:10.206Z,26.60
2023-01-04T08:12:38.352Z,26.50
2023-01-04T08:15:07.264Z,25.20
2023-01-04T08:17:35.368Z,23.20
2023-01-04T08:20:04.031Z,26.60
2023-01-04T08:22:32.116Z,26.20
2023-01-04T08:25:00.481Z,26.50
2023-01-04T08:27:28.651Z,24.80
2023-01-04T08:29:56.842Z,25.80
2023-01-04T08:32:25.849Z,26.40
2023-01-04T08:34:54.395Z,27.10
2023-01-04T08:37:22.436Z,25.30
2023-01-04T08:39:50.664Z,26.20
2023-01-04T08:42:28.220Z,26.70
2023-01-04T08:45:01.953Z,20.00
2023-01-04T08:47:32.130Z,19.40
2023-01-04T08:50:07.852Z,19.40
2023-01-04T08:52:38.878Z,20.80
2023-01-04T08:55:12.647Z,21.40
2023-01-04T08:57:42.671Z,22.30
2023-01-04T09:00:11.431Z,19.80
2023-01-04T09:02:40.225Z,21.20
2023-01-04T09:05:08.896Z,20.00
2023-01-04T09:07:37.638Z,19.00
2023-01-04T09:10:06.227Z,20.90
2023-01-04T09:12:34.404Z,21.10
2023-01-04T09:15:03.474Z,19.30
2023-01-04T09:17:31.994Z,22.80
2023-01-04T09:19:59.995Z,18.50
2023-01-04T09:22:28.423Z,17.50
2023-01-04T09:24:56.841Z,18.70
2023-01-04T09:27:25.583Z,17.80
2023-01-04T09:29:54.053Z,16.30
2023-01-04T09:32:22.291Z,17.70
2023-01-04T09:34:50.384Z,18.20
2023-01-04T09:37:18.985Z,17.30
2023-01-04T09:39:47.688Z,17.90
2023-01-04T09:42:37.044Z,17.70
2023-01-04T09:45:25.655Z,17.00
2023-01-04T09:47:59.620Z,14.70
2023-01-04T09:50:34.526Z,17.40
2023-01-04T09:53:16.772Z,16.10
2023-01-04T09:55:50.435Z,15.30
2023-01-04T09:58:30.368Z,16.50
2023-01-04T10:01:19.202Z,14.80
2023-01-04T10:04:13.832Z,15.70
2023-01-04T10:06:43.903Z,16.70
2023-01-04T10:09:15.626Z,15.90
2023-01-04T10:12:00.404Z,14.60
2023-01-04T10:14:49.036Z,13.80
2023-01-04T10:18:51.949Z,13.20
2023-01-04T10:24:06.176Z,15.10
2023-01-04T10:26:48.280Z,12.70
2023-01-04T10:29:37.977Z,11.80
2023-01-04T10:32:34.222Z,14.10
2023-01-04T10:35:12.634Z,14.20
2023-01-04T10:37:41.789Z,13.50
2023-01-04T10:43:02.133Z,12.60
2023-01-04T10:45:36.108Z,12.20
2023-01-04T10:48:13.004Z,13.00
2023-01-04T10:50:44.327Z,12.10
2023-01-04T10:53:18.457Z,11.30
2023-01-04T10:56:26.357Z,13.10
2023-01-04T10:59:13.881Z,12.00
2023-01-04T11:01:58.668Z,19.40
2023-01-04T11:04:30.199Z,13.50
2023-01-04T11:07:07.584Z,11.70
2023-01-04T11:10:01.563Z,12.10
2023-01-04T11:12:29.768Z,12.70
2023-01-04T11:14:58.219Z,25.60
2023-01-04T11:17:26.394Z,12.00
2023-01-04T11:19:54.862Z,15.20
2023-01-04T11:22:54.233Z,11.30
2023-01-04T11:25:34.982Z,11.60
2023-01-04T11:28:30.775Z,14.60
2023-01-04T11:31:08.046Z,11.20
2023-01-04T11:34:02.841Z,11.30
2023-01-04T11:36:36.353Z,12.80
2023-01-04T11:39:07.441Z,19.60
2023-01-04T11:41:35.980Z,11.40
2023-01-04T11:44:07.129Z,10.70
2023-01-04T11:46:35.502Z,8.90
2023-01-04T11:49:03.765Z,11.40
2023-01-04T11:51:32.238Z,10.80
2023-01-04T11:54:15.686Z,10.80
2023-01-04T11:56:59.740Z,10.30
2023-01-04T11:59:28.709Z,8.80
2023-01-04T12:02:28.856Z,8.80
2023-01-04T12:05:22.630Z,9.20
2023-01-04T12:07:54.672Z,9.20
2023-01-04T12:10:27.165Z,9.10
2023-01-04T12:12:59.112Z,8.80
2023-01-04T12:15:59.535Z,10.90
2023-01-04T12:18:34.518Z,13.00
2023-01-04T12:21:03.776Z,10.50
2023-01-04T12:23:34.233Z,14.00
2023-01-04T12:26:03.041Z,10.90
2023-01-04T12:28:42.262Z,10.70
2023-01-04T12:31:20.309Z,9.50
2023-01-04T12:33:52.072Z,14.10
2023-01-04T12:36:36.093Z,11.50
2023-01-04T12:39:13.977Z,15.50
2023-01-04T12:42:00.618Z,13.90
2023-01-04T12:44:43.553Z,12.10
2023-01-04T12:47:39.673Z,12.50
2023-01-04T12:50:12.459Z,13.60
2023-01-04T12:53:02.346Z,12.00
2023-01-04T12:55:32.756Z,9.10
2023-01-04T12:58:58.155Z,10.70
2023-01-04T13:01:29.246Z,12.20
2023-01-04T13:04:05.531Z,10.70
2023-01-04T13:06:42.857Z,12.10
2023-01-04T13:09:24.893Z,16.00
2023-01-04T13:12:23.858Z,11.20
2023-01-04T13:14:57.905Z,13.00
2023-01-04T13:17:27.383Z,11.80
2023-01-04T13:19:55.906Z,13.50
2023-01-04T13:22:31.679Z,11.80
2023-01-04T13:25:03.138Z,11.10
2023-01-04T13:27:31.462Z,16.60
2023-01-04T13:29:59.919Z,17.70
2023-01-04T13:32:31.236Z,17.30
2023-01-04T13:35:13.374Z,12.80
2023-01-04T13:37:51.045Z,13.50
2023-01-04T13:40:24.372Z,15.50
2023-01-04T13:43:47.242Z,15.40
2023-01-04T13:46:26.876Z,13.90
2023-01-04T13:49:01.608Z,15.90
2023-01-04T13:51:37.108Z,15.10
2023-01-04T13:54:17.579Z,13.70
2023-01-04T13:56:51.477Z,15.10
2023-01-04T13:59:23.629Z,16.10
2023-01-04T14:01:53.450Z,15.50
2023-01-04T14:04:30.616Z,14.70
2023-01-04T14:07:01.501Z,17.20
2023-01-04T14:09:35.613Z,12.50
2023-01-04T14:12:16.873Z,13.20
2023-01-04T14:14:55.496Z,16.00
2023-01-04T14:17:25.522Z,13.90
2023-01-04T14:19:53.641Z,14.20
2023-01-04T14:22:34.984Z,13.10
2023-01-04T14:25:30.849Z,12.70
2023-01-04T14:28:41.618Z,13.60
2023-01-04T14:31:20.962Z,12.90
2023-01-04T14:33:51.357Z,13.00
2023-01-04T14:36:27.289Z,14.60
2023-01-04T14:39:05.333Z,22.30
2023-01-04T14:41:42.370Z,16.40
2023-01-04T14:44:12.704Z,12.80
2023-01-04T14:46:43.842Z,15.40
2023-01-04T14:49:11.990Z,14.50
2023-01-04T14:51:52.255Z,16.80
2023-01-04T14:54:25.019Z,15.40
2023-01-04T14:56:55.679Z,17.90
2023-01-04T14:59:24.980Z,16.70
2023-01-04T15:01:54.573Z,18.70
2023-01-04T15:04:23.450Z,26.40
2023-01-04T15:06:56.754Z,17.20
2023-01-04T15:09:25.620Z,18.30
2023-01-04T15:11:54.025Z,20.00
2023-01-04T15:14:22.601Z,17.90
2023-01-04T15:16:50.612Z,16.30
2023-01-04T15:19:18.863Z,18.30
2023-01-04T15:21:47.343Z,17.80
2023-01-04T15:24:15.502Z,16.50
2023-01-04T15:26:43.796Z,16.80
2023-01-04T15:29:12.263Z,17.30
2023-01-04T15:31:41.771Z,16.90
2023-01-04T15:34:10.527Z,18.30
2023-01-04T15:36:41.003Z,24.70
2023-01-04T15:39:14.338Z,24.70
2023-01-04T15:42:01.288Z,25.70
2023-01-04T15:44:29.367Z,25.30
2023-01-04T15:46:59.735Z,30.80
2023-01-04T15:49:31.227Z,26.40
2023-01-04T15:51:59.413Z,25.10
2023-01-04T15:54:28.849Z,31.10
2023-01-04T15:56:58.028Z,35.30
2023-01-04T15:59:26.307Z,31.30
2023-01-04T16:01:54.594Z,35.00
2023-01-04T16:04:22.999Z,31.20
2023-01-04T16:06:51.313Z,37.30
2023-01-04T16:09:19.436Z,37.70
2023-01-04T16:12:07.855Z,37.00
2023-01-04T16:14:35.912Z,30.80
2023-01-04T16:17:04.230Z,25.70
2023-01-04T16:19:34.305Z,24.70
2023-01-04T16:22:02.560Z,23.70
2023-01-04T16:25:08.818Z,28.00
2023-01-04T16:27:19.034Z,24.70
2023-01-04T16:29:50.482Z,22.10
2023-01-04T16:32:19.118Z,27.00
2023-01-04T16:34:49.852Z,22.50
2023-01-04T16:37:18.953Z,22.70
2023-01-04T16:40:05.725Z,24.20
2023-01-04T16:42:34.332Z,21.20
2023-01-04T16:45:02.513Z,28.70
2023-01-04T16:47:38.554Z,24.10
2023-01-04T16:50:07.362Z,26.20
2023-01-04T16:52:35.578Z,35.10
2023-01-04T16:55:04.220Z,29.20
2023-01-04T16:57:32.355Z,31.00
2023-01-04T17:00:00.538Z,29.00
2023-01-04T17:02:29.372Z,27.60
2023-01-04T17:04:59.916Z,26.80
2023-01-04T17:07:32.937Z,22.70
2023-01-04T17:10:01.581Z,21.30
2023-01-04T17:12:47.533Z,21.90
2023-01-04T17:20:34.053Z,19.90
2023-01-04T17:23:02.171Z,23.90
2023-01-04T17:25:30.894Z,21.80
2023-01-04T17:27:59.341Z,28.90
2023-01-04T17:30:27.595Z,33.30
2023-01-04T17:32:55.994Z,20.90
2023-01-04T17:35:24.240Z,25.60
2023-01-04T17:37:52.299Z,82.40
2023-01-04T17:40:23.207Z,80.90
2023-01-04T17:42:52.022Z,107.20
2023-01-04T17:45:21.374Z,79.60
2023-01-04T17:47:49.829Z,70.00
2023-01-04T17:50:19.553Z,64.10
2023-01-04T17:52:50.787Z,67.70
2023-01-04T17:55:20.590Z,65.90
2023-01-04T17:57:48.901Z,61.00
2023-01-04T18:00:17.912Z,65.70
2023-01-04T18:02:46.056Z,60.70
2023-01-04T18:05:14.831Z,54.00
2023-01-04T18:07:42.809Z,59.80
2023-01-04T18:10:20.651Z,40.30
2023-01-04T18:12:49.657Z,35.10
2023-01-04T18:15:17.845Z,40.50
2023-01-04T18:17:45.894Z,45.60
2023-01-04T18:20:23.896Z,56.70
2023-01-04T18:22:53.300Z,61.40
2023-01-04T18:25:21.348Z,49.00
2023-01-04T18:27:49.834Z,57.10
2023-01-04T18:30:18.004Z,82.00
2023-01-04T18:32:47.016Z,43.90
2023-01-04T18:35:15.295Z,34.40
2023-01-04T18:37:45.925Z,34.30
2023-01-04T18:40:14.115Z,32.30
2023-01-04T18:42:46.493Z,32.40
2023-01-04T18:45:16.211Z,32.90
2023-01-04T18:47:48.592Z,34.80
2023-01-04T18:50:18.402Z,43.60
2023-01-04T18:52:46.643Z,56.20
2023-01-04T18:55:15.316Z,48.40
2023-01-04T18:57:43.490Z,55.50
2023-01-04T19:00:12.438Z,51.60
2023-01-04T19:02:40.849Z,46.60
2023-01-04T19:05:10.475Z,52.00
2023-01-04T19:07:39.569Z,49.50
2023-01-04T19:10:08.759Z,52.40
2023-01-04T19:12:38.858Z,59.00
2023-01-04T19:15:08.303Z,50.80
2023-01-04T19:17:37.086Z,51.60
2023-01-04T19:20:05.810Z,56.60
2023-01-04T19:22:34.850Z,58.10
2023-01-04T19:25:03.422Z,48.80
2023-01-04T19:27:31.739Z,50.20
2023-01-04T19:30:01.003Z,46.70
2023-01-04T19:35:02.798Z,50.40
2023-01-04T19:37:30.980Z,58.70
2023-01-04T19:39:59.019Z,60.80
2023-01-04T19:42:27.083Z,54.60
2023-01-04T19:44:55.258Z,52.00
2023-01-04T19:47:23.419Z,46.70
2023-01-04T19:49:51.620Z,50.90
2023-01-04T19:52:19.695Z,49.20
2023-01-04T19:54:47.898Z,50.30
2023-01-04T19:57:15.920Z,45.80
2023-01-04T19:59:44.188Z,46.00
2023-01-04T20:02:12.481Z,47.30
2023-01-04T20:04:40.735Z,46.40
2023-01-04T20:07:09.128Z,52.20
2023-01-04T20:09:37.430Z,52.20
2023-01-04T20:12:06.186Z,51.00
2023-01-04T20:14:34.468Z,54.20
2023-01-04T20:17:02.572Z,49.00
2023-01-04T20:19:30.748Z,62.50
2023-01-04T20:21:59.075Z,48.70
2023-01-04T20:24:27.297Z,52.20
2023-01-04T20:26:55.314Z,59.70
2023-01-04T20:29:23.829Z,56.30
2023-01-04T20:31:52.183Z,50.30
2023-01-04T20:34:20.581Z,52.20
2023-01-04T20:36:48.629Z,53.20
2023-01-04T20:39:16.910Z,49.30
2023-01-04T20:42:03.736Z,53.70
2023-01-04T20:44:31.780Z,66.00
2023-01-04T20:47:00.053Z,65.90
2023-01-04T20:49:28.124Z,72.50
2023-01-04T20:51:56.398Z,70.40
2023-01-04T20:54:24.527Z,70.40
2023-01-04T20:56:52.947Z,71.70
2023-01-04T20:59:21.020Z,69.80
2023-01-04T21:01:49.190Z,70.30
2023-01-04T21:04:17.978Z,75.50
2023-01-04T21:06:46.463Z,65.20
2023-01-04T21:09:14.532Z,51.80
2023-01-04T21:11:42.542Z,50.80
2023-01-04T21:14:12.051Z,46.70
2023-01-04T21:16:42.008Z,44.10
2023-01-04T21:19:10.293Z,47.60
2023-01-04T21:21:38.493Z,47.60
2023-01-04T21:24:07.286Z,56.70
2023-01-04T21:26:35.342Z,55.30
2023-01-04T21:29:03.505Z,56.80
2023-01-04T21:31:31.679Z,61.00
2023-01-04T21:33:59.843Z,67.70
2023-01-04T21:36:28.795Z,67.50
2023-01-04T21:38:58.852Z,63.60
2023-01-04T21:41:26.936Z,65.00
2023-01-04T21:43:58.624Z,58.90
2023-01-04T21:46:27.233Z,68.10
2023-01-04T21:48:58.162Z,73.80
2023-01-04T21:51:26.276Z,64.10
2023-01-04T21:53:54.955Z,74.00
2023-01-04T21:56:24.250Z,72.90
2023-01-04T21:58:52.300Z,74.00
2023-01-04T22:01:29.860Z,67.50
2023-01-04T22:04:03.607Z,69.10
2023-01-04T22:06:34.183Z,69.90
2023-01-04T22:09:02.236Z,57.40
2023-01-04T22:11:30.381Z,50.30
2023-01-04T22:13:58.392Z,60.50
2023-01-04T22:16:26.533Z,63.80
2023-01-04T22:18:55.309Z,64.40
2023-01-04T22:21:26.827Z,61.00
2023-01-04T22:23:55.382Z,50.40
2023-01-04T22:26:23.622Z,58.20
2023-01-04T22:28:51.920Z,66.30
2023-01-04T22:31:20.288Z,73.70
2023-01-04T22:33:48.421Z,61.40
2023-01-04T22:36:22.880Z,58.00
2023-01-04T22:38:53.637Z,47.40
2023-01-04T22:41:24.197Z,54.40
2023-01-04T22:44:01.246Z,59.50
2023-01-04T22:46:30.097Z,65.90
2023-01-04T22:49:01.058Z,69.10
2023-01-04T22:51:30.444Z,76.80
2023-01-04T22:56:28.757Z,64.70
2023-01-04T22:58:58.031Z,61.80
2023-01-04T23:01:32.184Z,75.00
2023-01-04T23:04:01.743Z,85.30
2023-01-04T23:06:31.475Z,88.10
2023-01-04T23:09:05.550Z,88.20
2023-01-04T23:11:35.984Z,88.50
2023-01-04T23:14:06.667Z,68.30
2023-01-04T23:16:35.761Z,69.80
2023-01-04T23:19:05.775Z,65.60
2023-01-04T23:21:35.430Z,62.90
2023-01-04T23:24:04.329Z,61.60
2023-01-04T23:26:33.840Z,74.60
2023-01-04T23:29:02.769Z,63.60
2023-01-04T23:31:32.645Z,71.80
2023-01-04T23:34:03.778Z,65.10
2023-01-04T23:36:35.159Z,68.60
2023-01-04T23:39:07.397Z,74.00
2023-01-04T23:41:45.406Z,68.40
2023-01-04T23:44:16.940Z,66.40
2023-01-04T23:46:46.579Z,68.70
2023-01-04T23:49:14.729Z,60.80
2023-01-04T23:51:42.956Z,61.90
2023-01-04T23:54:11.798Z,60.90
2023-01-04T23:56:40.845Z,61.20
2023-01-04T23:59:09.237Z,55.10
